Orbital elements of FREGAT DEB
| Launched | 17 July 2011 |
| Flight ended | – |
| Launch site | Tyuratam Missile and Space Center, Kazakhstan (Also known as Baikonur Cosmodrome) |
| Owner | Commonwealth of Independent States (former USSR) |
| NORAD ID | 46002 |
| Date fetched |
Epoch osculation |
Inc. [°] |
Ecc. | RA asc node [hr] |
Arg Peri. [°] |
Mean anom [°] |
Mean motion [rev/day] |
Abs. mag |
| Date fetched |
Epoch osculation |
Inc. [°] |
Ecc. | RA asc node [hr] |
Arg Peri. [°] |
Mean anom [°] |
Mean motion [rev/day] |
Abs. mag |
| 2026 May 04 17:57 | 2026 Apr 30 14:09:40 | 51.2956 | 0.14725 | 21.7989 | 71.1398 | 304.3014 | 11.56822 | – |
| 2026 May 03 17:57 | 2026 Apr 30 14:09:40 | 51.2956 | 0.14725 | 21.7989 | 71.1398 | 304.3014 | 11.56822 | – |
| 2026 May 02 17:57 | 2026 Apr 30 14:09:40 | 51.2956 | 0.14725 | 21.7989 | 71.1398 | 304.3014 | 11.56822 | – |
| 2026 May 01 17:56 | 2026 Apr 30 14:09:40 | 51.2956 | 0.14725 | 21.7989 | 71.1398 | 304.3014 | 11.56822 | – |
| 2026 Apr 30 17:56 | 2026 Apr 30 14:09:40 | 51.2956 | 0.14725 | 21.7989 | 71.1398 | 304.3014 | 11.56822 | – |
| 2026 Apr 29 17:57 | 2026 Apr 23 22:26:17 | 51.2931 | 0.14710 | 22.9679 | 56.8805 | 304.3014 | 11.56822 | – |
| 2026 Apr 28 17:56 | 2026 Apr 23 22:26:17 | 51.2931 | 0.14710 | 22.9679 | 56.8805 | 304.3014 | 11.56822 | – |
| 2026 Apr 27 17:58 | 2026 Apr 23 22:26:17 | 51.2931 | 0.14710 | 22.9679 | 56.8805 | 304.3014 | 11.56822 | – |
| 2026 Apr 26 17:58 | 2026 Apr 23 22:26:17 | 51.2931 | 0.14710 | 22.9679 | 56.8805 | 304.3014 | 11.56822 | – |
| 2026 Apr 25 17:58 | 2026 Apr 23 22:26:17 | 51.2931 | 0.14710 | 22.9679 | 56.8805 | 304.3014 | 11.56822 | – |
| 2026 Apr 24 17:59 | 2026 Apr 23 22:26:17 | 51.2931 | 0.14710 | 22.9679 | 56.8805 | 304.3014 | 11.56822 | – |
| 2026 Apr 23 17:57 | 2026 Apr 19 08:26:53 | 51.2919 | 0.14676 | 23.7718 | 47.0597 | 304.3014 | 11.56822 | – |
| 2026 Apr 22 17:57 | 2026 Apr 19 08:26:53 | 51.2919 | 0.14676 | 23.7718 | 47.0597 | 304.3014 | 11.56822 | – |
| 2026 Apr 21 17:57 | 2026 Apr 19 08:26:53 | 51.2919 | 0.14676 | 23.7718 | 47.0597 | 304.3014 | 11.56822 | – |
| 2026 Apr 20 17:57 | 2026 Apr 19 08:26:53 | 51.2919 | 0.14676 | 23.7718 | 47.0597 | 304.3014 | 11.56822 | – |
| 2026 Apr 19 17:58 | 2026 Apr 19 08:26:53 | 51.2919 | 0.14676 | 23.7718 | 47.0597 | 304.3014 | 11.56822 | – |
| 2026 Apr 18 17:56 | 2026 Apr 13 00:53:24 | 51.2898 | 0.14612 | 0.8786 | 33.5313 | 304.3014 | 11.56822 | – |
| 2026 Apr 16 17:57 | 2026 Apr 13 00:53:24 | 51.2898 | 0.14612 | 0.8786 | 33.5313 | 304.3014 | 11.56822 | – |
| 2026 Apr 14 17:57 | 2026 Apr 13 00:53:24 | 51.2898 | 0.14612 | 0.8786 | 33.5313 | 304.3014 | 11.56822 | – |
| 2026 Apr 13 17:57 | 2026 Apr 13 00:53:24 | 51.2898 | 0.14612 | 0.8786 | 33.5313 | 304.3014 | 11.56822 | – |
| 2026 Apr 12 17:57 | 2026 Apr 08 04:34:33 | 51.2946 | 0.14566 | 1.7267 | 23.1909 | 304.3014 | 11.56822 | – |
| 2026 Apr 11 17:57 | 2026 Apr 08 04:34:33 | 51.2946 | 0.14566 | 1.7267 | 23.1909 | 304.3014 | 11.56822 | – |
| 2026 Apr 10 17:58 | 2026 Apr 08 04:34:33 | 51.2946 | 0.14566 | 1.7267 | 23.1909 | 304.3014 | 11.56822 | – |
| 2026 Apr 09 18:01 | 2026 Apr 08 04:34:33 | 51.2946 | 0.14566 | 1.7267 | 23.1909 | 304.3014 | 11.56822 | – |
| 2026 Apr 08 17:57 | 2026 Apr 08 04:34:33 | 51.2946 | 0.14566 | 1.7267 | 23.1909 | 304.3014 | 11.56822 | – |
| 2026 Apr 07 17:57 | 2026 Apr 02 05:10:05 | 51.2910 | 0.14516 | 2.7700 | 10.4932 | 304.3014 | 11.56822 | – |